Time;durP1;ratioP1;P1;durP2;ratioP2;P2;SDS_P1;SDS_P2;PMS_P1;PMS_P2;Temp;Humidity;BMP_temperature;BMP_pressure;BME280_temperature;BME280_humidity;BME280_pressure;Samples;Min_cycle;Max_cycle;Signal;HPM_P1;HPM_P2
2021/08/01 00:01:37;;;;;;;750.30;318.70;;;;;;;19.91;69.07;93378.56;5088114;28;20442;-52
2021/08/01 00:04:02;;;;;;;721.95;296.17;;;;;;;19.92;69.20;93389.16;5092048;28;20078;-50
2021/08/01 00:06:28;;;;;;;818.20;325.15;;;;;;;19.79;69.46;93381.38;5089818;28;20028;-50
2021/08/01 00:08:54;;;;;;;746.33;312.25;;;;;;;19.84;69.77;93390.78;5091963;28;20034;-50
2021/08/01 00:11:19;;;;;;;699.92;293.70;;;;;;;19.87;69.43;93386.72;5090347;28;20028;-50
2021/08/01 00:13:44;;;;;;;593.92;259.23;;;;;;;19.80;69.21;93377.22;5091719;28;20028;-51
2021/08/01 00:16:10;;;;;;;701.63;293.95;;;;;;;19.66;69.89;93379.22;5091164;28;20480;-50
2021/08/01 00:18:36;;;;;;;772.53;305.77;;;;;;;19.60;70.18;93368.38;5091848;28;20444;-49
2021/08/01 00:21:01;;;;;;;666.50;265.75;;;;;;;19.63;69.87;93360.81;5091866;28;20024;-51
2021/08/01 00:23:27;;;;;;;777.53;325.05;;;;;;;19.54;70.00;93361.69;5091721;28;20055;-54
2021/08/01 00:25:52;;;;;;;700.63;276.67;;;;;;;19.59;70.15;93346.59;5091800;28;20404;-52
2021/08/01 00:28:18;;;;;;;714.17;292.63;;;;;;;19.59;69.39;93355.72;5090560;28;20095;-53
2021/08/01 00:30:44;;;;;;;710.53;286.75;;;;;;;19.39;69.56;93351.72;5091695;28;20020;-53
2021/08/01 00:33:09;;;;;;;753.53;317.08;;;;;;;19.36;70.02;93347.31;5091227;28;20560;-54
2021/08/01 00:35:34;;;;;;;772.88;318.80;;;;;;;19.44;70.57;93350.63;5091662;28;20106;-49
2021/08/01 00:38:00;;;;;;;735.10;299.25;;;;;;;19.41;70.46;93365.81;5089667;28;20020;-50
2021/08/01 00:40:25;;;;;;;702.80;272.58;;;;;;;19.33;70.62;93358.97;5091198;28;20031;-50
2021/08/01 00:42:51;;;;;;;522.88;200.48;;;;;;;19.42;70.08;93374.97;5090571;28;20111;-50
2021/08/01 00:45:17;;;;;;;524.20;226.20;;;;;;;19.32;70.61;93366.66;5091002;28;20100;-50
2021/08/01 00:47:43;;;;;;;553.13;211.65;;;;;;;19.38;70.69;93366.31;5091469;28;20027;-49
2021/08/01 00:50:09;;;;;;;487.42;205.70;;;;;;;19.21;71.29;93372.97;5091324;28;20463;-50
2021/08/01 00:52:36;;;;;;;458.75;184.02;;;;;;;19.14;71.98;93382.34;5076734;28;20537;-49
2021/08/01 00:55:06;;;;;;;483.75;179.40;;;;;;;19.14;72.16;93381.63;5070670;28;20039;-50
2021/08/01 00:57:31;;;;;;;431.02;176.15;;;;;;;19.10;71.97;93392.56;5083404;28;20508;-52
2021/08/01 00:59:57;;;;;;;497.77;187.07;;;;;;;19.03;71.50;93399.13;5072070;28;20103;-49
2021/08/01 01:02:36;;;;;;;560.90;218.88;;;;;;;18.91;70.88;93396.28;5075379;28;20024;-49
2021/08/01 01:05:26;;;;;;;555.58;215.88;;;;;;;18.93;70.82;93390.81;5090733;28;20081;-52
2021/08/01 01:07:58;;;;;;;512.80;189.98;;;;;;;18.86;71.47;93400.91;5089574;28;20145;-49
2021/08/01 01:10:31;;;;;;;561.38;205.43;;;;;;;18.91;71.56;93393.50;5090985;28;20116;-50
2021/08/01 01:13:10;;;;;;;587.78;224.95;;;;;;;18.79;71.95;93379.50;5089758;28;20030;-51
2021/08/01 01:15:40;;;;;;;487.75;180.23;;;;;;;18.79;71.70;93379.50;5077234;28;20410;-53
2021/08/01 01:18:07;;;;;;;563.55;213.00;;;;;;;18.93;72.13;93388.03;5069212;28;20111;-51
2021/08/01 01:20:37;;;;;;;569.63;226.95;;;;;;;18.91;71.95;93383.03;5070625;28;20024;-52
2021/08/01 01:23:09;;;;;;;565.28;208.27;;;;;;;18.93;72.33;93380.38;5070200;28;20032;-53
2021/08/01 01:25:59;;;;;;;554.78;215.85;;;;;;;18.92;71.76;93367.72;5070229;28;20062;-49
2021/08/01 01:28:41;;;;;;;481.45;189.90;;;;;;;18.93;71.41;93376.81;5070615;28;20082;-48
2021/08/01 01:31:13;;;;;;;498.27;188.98;;;;;;;18.85;70.62;93367.94;5069295;28;20025;-48
2021/08/01 01:34:11;;;;;;;608.13;237.30;;;;;;;18.78;70.88;93366.84;5082029;28;20519;-51
2021/08/01 01:36:39;;;;;;;436.13;164.83;;;;;;;18.80;70.70;93366.97;5081330;28;20625;-53
2021/08/01 01:39:06;;;;;;;550.70;207.68;;;;;;;18.70;70.94;93354.41;5088329;28;20606;-50
2021/08/01 01:41:32;;;;;;;591.05;218.68;;;;;;;18.71;70.92;93361.47;5089459;28;20102;-52
2021/08/01 01:43:58;;;;;;;563.88;221.63;;;;;;;18.69;71.08;93370.44;5088856;28;20507;-52
2021/08/01 01:46:24;;;;;;;510.40;198.85;;;;;;;18.66;70.85;93357.69;5073774;28;20050;-52
2021/08/01 01:48:51;;;;;;;593.10;228.00;;;;;;;18.55;71.48;93360.44;5080662;28;20035;-51
2021/08/01 01:51:18;;;;;;;566.45;210.35;;;;;;;18.62;71.29;93362.31;5078184;28;20020;-50
2021/08/01 01:53:43;;;;;;;541.28;207.93;;;;;;;18.63;71.26;93367.28;5086571;28;20481;-51
2021/08/01 01:56:10;;;;;;;625.05;226.02;;;;;;;18.30;71.20;93329.47;5070556;28;20059;-51
2021/08/01 01:58:36;;;;;;;624.60;231.50;;;;;;;18.42;71.44;93366.56;5079918;28;20031;-50
2021/08/01 02:01:01;;;;;;;621.55;232.73;;;;;;;18.44;70.78;93372.28;5088968;28;20031;-51
2021/08/01 02:03:27;;;;;;;604.55;227.00;;;;;;;18.50;70.52;93367.84;5090331;28;20032;-51
2021/08/01 02:05:53;;;;;;;447.77;175.85;;;;;;;18.53;70.23;93354.72;5090125;28;20512;-50
2021/08/01 02:08:18;;;;;;;494.40;176.68;;;;;;;18.50;70.88;93367.84;5090015;28;20028;-53
2021/08/01 02:10:55;;;;;;;439.58;156.50;;;;;;;18.49;71.12;93360.81;5090386;28;20017;-50
2021/08/01 02:13:29;;;;;;;367.27;135.88;;;;;;;18.47;70.27;93366.28;5088774;28;20414;-50
2021/08/01 02:15:56;;;;;;;405.15;145.65;;;;;;;18.39;70.77;93364.97;5068663;28;20028;-52
2021/08/01 02:18:27;;;;;;;481.73;173.77;;;;;;;18.25;70.96;93361.28;5068662;28;20082;-49
2021/08/01 02:20:53;;;;;;;499.23;183.65;;;;;;;18.19;70.48;93353.25;5068978;28;20028;-53
2021/08/01 02:23:25;;;;;;;496.77;165.90;;;;;;;18.21;70.32;93363.81;5069612;28;20492;-53
2021/08/01 02:25:52;;;;;;;409.08;152.43;;;;;;;18.29;69.75;93353.91;5070077;28;20424;-55
2021/08/01 02:28:20;;;;;;;367.58;125.82;;;;;;;17.83;69.98;93308.97;5068481;28;20107;-56
2021/08/01 02:30:45;;;;;;;352.45;130.52;;;;;;;18.19;70.43;93364.44;5072535;28;20032;-54
2021/08/01 02:33:11;;;;;;;374.35;140.55;;;;;;;18.22;70.55;93363.22;5073161;28;20055;-54
2021/08/01 02:35:37;;;;;;;428.63;145.70;;;;;;;18.08;70.65;93368.63;5073335;28;20029;-54
2021/08/01 02:38:03;;;;;;;400.88;151.38;;;;;;;18.15;70.22;93366.94;5073272;28;20034;-56
2021/08/01 02:40:33;;;;;;;463.60;167.38;;;;;;;18.02;70.49;93362.66;5072395;28;20044;-54
2021/08/01 02:42:59;;;;;;;450.05;158.45;;;;;;;17.99;70.40;93368.72;5071877;28;20482;-52
2021/08/01 02:45:25;;;;;;;480.83;170.68;;;;;;;18.00;69.97;93368.09;5090687;28;20097;-53
2021/08/01 02:47:51;;;;;;;481.58;166.43;;;;;;;17.81;70.69;93375.88;5092487;28;20473;-53
2021/08/01 02:50:17;;;;;;;469.55;163.20;;;;;;;17.91;70.81;93368.91;5092442;28;20471;-52
2021/08/01 02:52:54;;;;;;;380.40;147.90;;;;;;;17.97;70.23;93363.72;5082770;28;20028;-50
2021/08/01 02:55:20;;;;;;;301.15;117.20;;;;;;;17.96;70.62;93379.00;5077406;28;20028;-50
2021/08/01 02:57:48;;;;;;;356.83;125.10;;;;;;;17.94;70.90;93364.19;5079743;28;20097;-53
2021/08/01 03:00:13;;;;;;;313.17;110.63;;;;;;;17.86;70.95;93377.63;5071980;28;20039;-56
2021/08/01 03:02:39;;;;;;;318.50;111.30;;;;;;;17.81;70.76;93376.63;5071385;28;20413;-50
2021/08/01 03:05:06;;;;;;;286.27;103.53;;;;;;;17.74;70.78;93360.06;5073109;28;20098;-52
2021/08/01 03:07:33;;;;;;;243.20;94.50;;;;;;;17.83;70.91;93376.00;5071899;28;20490;-51
2021/08/01 03:09:58;;;;;;;250.75;91.10;;;;;;;17.70;71.47;93366.09;5072647;28;20024;-51
2021/08/01 03:12:23;;;;;;;291.00;99.15;;;;;;;17.77;71.41;93372.81;5072716;28;20024;-54
2021/08/01 03:14:49;;;;;;;306.83;98.35;;;;;;;17.83;71.07;93373.22;5072532;28;20031;-52
2021/08/01 03:17:14;;;;;;;259.08;85.40;;;;;;;17.79;71.20;93379.28;5072609;28;20043;-54
2021/08/01 03:19:40;;;;;;;247.52;97.82;;;;;;;17.79;70.98;93381.34;5072812;28;20059;-52
2021/08/01 03:22:06;;;;;;;326.05;107.20;;;;;;;17.79;71.15;93381.34;5072422;28;20042;-47
2021/08/01 03:24:32;;;;;;;296.52;107.13;;;;;;;17.81;70.91;93382.22;5072547;28;20024;-47
2021/08/01 03:26:57;;;;;;;312.08;116.88;;;;;;;17.73;71.05;93386.53;5072667;28;20059;-47
2021/08/01 03:29:23;;;;;;;418.35;135.80;;;;;;;17.66;71.17;93382.59;5072417;28;20082;-48
2021/08/01 03:31:48;;;;;;;377.63;131.65;;;;;;;17.64;70.63;93392.91;5072624;28;20032;-47
2021/08/01 03:34:14;;;;;;;441.63;149.57;;;;;;;17.61;70.51;93385.69;5071984;28;20047;-46
2021/08/01 03:36:39;;;;;;;416.27;143.48;;;;;;;17.49;70.80;93391.19;5072562;28;20055;-46
2021/08/01 03:39:05;;;;;;;437.15;152.63;;;;;;;17.48;70.86;93395.28;5072167;28;20032;-47
2021/08/01 03:41:31;;;;;;;324.95;113.43;;;;;;;17.59;70.76;93386.31;5072053;28;20024;-46
2021/08/01 03:43:56;;;;;;;373.20;117.38;;;;;;;17.64;70.55;93387.31;5071976;28;20059;-49
2021/08/01 03:46:22;;;;;;;316.92;106.28;;;;;;;17.62;70.95;93381.59;5089844;28;20115;-48
2021/08/01 03:48:47;;;;;;;232.65;85.10;;;;;;;17.68;70.81;93388.31;5092437;28;20100;-49
2021/08/01 03:51:13;;;;;;;262.50;98.45;;;;;;;17.71;69.95;93387.13;5085509;28;20119;-47
2021/08/01 03:53:38;;;;;;;286.08;107.10;;;;;;;17.65;69.60;93383.91;5071918;28;20036;-49
2021/08/01 03:56:04;;;;;;;307.90;110.43;;;;;;;17.76;69.39;93388.84;5071825;28;20020;-47
2021/08/01 03:58:30;;;;;;;302.60;100.45;;;;;;;17.72;69.61;93391.38;5072093;28;20035;-48
2021/08/01 04:00:55;;;;;;;229.65;88.45;;;;;;;17.65;70.14;93369.94;5071119;28;20063;-47
2021/08/01 04:03:21;;;;;;;336.90;114.30;;;;;;;17.71;70.65;93400.34;5071153;28;20063;-48
2021/08/01 04:05:47;;;;;;;333.30;109.57;;;;;;;17.54;70.70;93381.06;5071962;28;20659;-48
2021/08/01 04:08:12;;;;;;;280.13;98.82;;;;;;;17.67;70.96;93397.28;5071863;28;20032;-47
2021/08/01 04:10:37;;;;;;;328.42;123.05;;;;;;;17.61;71.25;93394.81;5071843;28;20486;-47
2021/08/01 04:13:03;;;;;;;373.00;136.25;;;;;;;17.62;71.26;93393.50;5071831;28;20470;-48
2021/08/01 04:15:29;;;;;;;382.45;130.90;;;;;;;17.54;71.76;93401.34;5071720;28;20051;-49
2021/08/01 04:17:54;;;;;;;351.60;135.43;;;;;;;17.56;72.29;93395.16;5071771;28;20545;-47
2021/08/01 04:20:20;;;;;;;298.33;112.15;;;;;;;17.53;72.64;93394.28;5071647;28;20081;-48
2021/08/01 04:22:45;;;;;;;295.85;114.13;;;;;;;17.70;72.32;93396.81;5071170;28;20128;-49
2021/08/01 04:25:11;;;;;;;354.45;138.45;;;;;;;17.69;72.86;93395.38;5071162;28;20039;-49
2021/08/01 04:27:36;;;;;;;394.50;131.65;;;;;;;17.73;72.68;93390.06;5071464;28;20024;-53
2021/08/01 04:30:03;;;;;;;350.40;132.27;;;;;;;17.81;72.98;93389.84;5071170;28;20536;-52
2021/08/01 04:32:28;;;;;;;428.83;150.55;;;;;;;17.87;72.90;93404.22;5071209;28;20390;-51
2021/08/01 04:34:54;;;;;;;436.50;148.18;;;;;;;17.91;73.08;93405.22;5071376;28;20028;-51
2021/08/01 04:37:19;;;;;;;449.02;158.95;;;;;;;17.96;73.16;93395.03;5071364;28;20036;-49
2021/08/01 04:39:45;;;;;;;481.02;171.68;;;;;;;18.02;73.03;93398.97;5070997;28;20040;-49
2021/08/01 04:42:10;;;;;;;428.65;161.85;;;;;;;18.06;73.20;93404.81;5071224;28;20039;-48
2021/08/01 04:44:36;;;;;;;434.65;153.88;;;;;;;18.12;72.96;93407.28;5071198;28;20043;-49
2021/08/01 04:47:01;;;;;;;379.17;141.68;;;;;;;18.22;72.76;93398.81;5071147;28;20036;-50
2021/08/01 04:49:27;;;;;;;414.60;156.98;;;;;;;18.21;73.02;93394.56;5071171;28;20029;-50
2021/08/01 04:51:52;;;;;;;459.50;173.30;;;;;;;18.26;73.14;93401.88;5073526;28;20470;-48
2021/08/01 04:54:18;;;;;;;559.08;191.15;;;;;;;18.30;73.62;93402.16;5070949;28;20016;-49
2021/08/01 04:56:46;;;;;;;597.67;210.13;;;;;;;18.39;74.64;93412.50;5070692;28;20075;-49
2021/08/01 04:59:12;;;;;;;606.35;221.45;;;;;;;18.47;74.51;93405.41;5070977;28;20087;-49
2021/08/01 05:01:38;;;;;;;644.17;241.65;;;;;;;18.52;74.84;93409.19;5070892;28;20033;-49
2021/08/01 05:04:04;;;;;;;744.15;253.27;;;;;;;18.63;74.42;93411.28;5070478;28;20029;-51
2021/08/01 05:06:29;;;;;;;797.00;258.15;;;;;;;18.67;74.15;93409.47;5070506;28;20028;-49
2021/08/01 05:08:55;;;;;;;804.00;277.75;;;;;;;18.78;74.09;93413.66;5070796;28;20032;-52
2021/08/01 05:11:20;;;;;;;873.13;291.25;;;;;;;18.84;74.60;93409.16;5070369;28;20489;-51
2021/08/01 05:13:46;;;;;;;853.97;303.27;;;;;;;18.88;74.25;93405.91;5070645;28;20055;-49
2021/08/01 05:16:16;;;;;;;1022.92;336.33;;;;;;;18.97;74.77;93407.88;5070688;28;20477;-50
2021/08/01 05:44:53;;;;;;;1999.90;876.17;;;;;;;20.88;69.50;93399.56;5087184;27;20606;-56
2021/08/01 05:47:19;;;;;;;1803.15;730.78;;;;;;;20.69;70.82;93382.34;5087031;28;20485;-52
2021/08/01 05:49:44;;;;;;;1638.03;630.30;;;;;;;20.72;71.47;93381.84;5087421;28;20012;-55
2021/08/01 05:52:13;;;;;;;1426.10;566.47;;;;;;;20.70;71.53;93395.78;5086648;28;20090;-53
2021/08/01 05:54:39;;;;;;;;;;;;;;;20.61;71.68;93393.84;5087955;28;20020;-54
2021/08/01 05:57:04;;;;;;;1103.55;391.90;;;;;;;20.56;71.90;93405.44;5087253;28;20453;-56
2021/08/01 05:59:32;;;;;;;1328.53;477.90;;;;;;;20.54;71.62;93406.06;5087088;28;20547;-57
2021/08/01 06:01:57;;;;;;;1533.45;524.85;;;;;;;20.59;71.65;93410.56;5086806;28;20024;-54
2021/08/01 06:04:22;;;;;;;1429.43;513.72;;;;;;;20.67;70.75;93404.69;5087064;28;20081;-51
2021/08/01 06:06:48;;;;;;;1492.25;559.33;;;;;;;20.67;70.80;93402.59;5086618;28;20145;-57
2021/08/01 06:09:13;;;;;;;1625.10;577.67;;;;;;;20.78;71.18;93407.44;5086251;28;20020;-58
2021/08/01 06:11:39;;;;;;;1346.13;502.27;;;;;;;21.00;70.36;93410.75;5086420;28;20035;-55
2021/08/01 06:14:04;;;;;;;1387.47;533.90;;;;;;;21.02;70.14;93408.03;5086522;28;20086;-51
2021/08/01 06:16:30;;;;;;;1186.32;485.42;;;;;;;21.05;70.21;93415.97;5086444;28;20078;-53
2021/08/01 06:18:56;;;;;;;1224.50;487.50;;;;;;;21.19;70.25;93412.47;5086897;28;20024;-50
2021/08/01 06:21:21;;;;;;;1320.63;532.17;;;;;;;21.27;70.87;93422.06;5086899;28;20048;-49
2021/08/01 06:23:48;;;;;;;1413.45;553.25;;;;;;;21.39;70.77;93425.53;5086586;28;20443;-50
2021/08/01 06:26:15;;;;;;;1070.18;467.90;;;;;;;21.46;69.45;93426.59;5086803;28;20032;-49
2021/08/01 06:28:41;;;;;;;922.88;437.95;;;;;;;21.55;68.85;93423.59;5086683;28;20029;-50
2021/08/01 06:31:08;;;;;;;943.92;434.65;;;;;;;21.70;68.84;93425.78;5078338;28;20024;-48
2021/08/01 06:33:49;;;;;;;1032.15;456.83;;;;;;;21.74;69.54;93419.66;5073254;28;20044;-48
2021/08/01 06:36:41;;;;;;;989.90;449.73;;;;;;;21.92;69.01;93422.72;5073172;28;20028;-50
2021/08/01 06:39:08;;;;;;;665.15;323.52;;;;;;;22.15;68.66;93420.41;5073067;28;20031;-48
2021/08/01 06:41:34;;;;;;;551.17;265.52;;;;;;;22.24;68.48;93413.13;5071942;28;20421;-51
2021/08/01 06:44:00;;;;;;;262.92;125.32;;;;;;;22.29;66.97;93417.56;5072474;28;20087;-51
2021/08/01 06:46:25;;;;;;;299.35;149.52;;;;;;;22.41;66.98;93409.75;5073033;28;20056;-50
2021/08/01 06:48:51;;;;;;;374.15;162.95;;;;;;;22.57;66.89;93407.72;5072527;28;20493;-50
2021/08/01 06:51:16;;;;;;;432.45;212.57;;;;;;;22.74;68.07;93415.63;5072207;28;20016;-50
2021/08/01 06:53:41;;;;;;;49.03;29.08;;;;;;;22.79;64.42;93408.84;5072515;28;20074;-50
2021/08/01 06:56:07;;;;;;;33.75;16.88;;;;;;;22.90;63.42;93405.16;5075368;28;20034;-50
2021/08/01 06:58:32;;;;;;;16.42;13.05;;;;;;;22.92;63.11;93405.25;5077679;28;20489;-49
2021/08/01 07:00:58;;;;;;;19.10;13.55;;;;;;;23.17;63.15;93405.00;5072251;28;20036;-50
2021/08/01 07:03:27;;;;;;;26.23;15.23;;;;;;;23.26;60.81;93392.03;5072638;28;20025;-49
2021/08/01 07:05:52;;;;;;;24.90;13.23;;;;;;;23.41;60.35;93390.63;5072387;28;20516;-48
2021/08/01 07:08:18;;;;;;;18.38;13.45;;;;;;;23.51;61.35;93391.09;5072213;28;20028;-52
2021/08/01 07:10:43;;;;;;;18.92;12.93;;;;;;;23.57;62.00;93386.44;5072183;28;20017;-50
2021/08/01 07:13:09;;;;;;;20.67;12.95;;;;;;;23.57;61.65;93388.53;5072456;28;20017;-52
2021/08/01 07:15:35;;;;;;;22.42;13.63;;;;;;;23.64;59.15;93362.09;5072492;28;20108;-49
2021/08/01 07:18:01;;;;;;;25.67;13.27;;;;;;;23.99;59.89;93381.97;5072061;28;20028;-49
2021/08/01 07:20:27;;;;;;;25.67;12.68;;;;;;;24.01;59.25;93373.59;5072296;28;20016;-50
2021/08/01 07:22:53;;;;;;;19.77;12.52;;;;;;;24.14;58.50;93375.59;5072196;28;20098;-50
2021/08/01 07:25:20;;;;;;;18.02;11.93;;;;;;;24.29;58.97;93379.72;5072253;28;20035;-50
2021/08/01 07:27:45;;;;;;;14.70;10.77;;;;;;;24.48;56.98;93370.66;5071906;28;20024;-49
2021/08/01 07:30:11;;;;;;;17.55;11.57;;;;;;;24.61;56.14;93369.78;5061761;28;20503;-48
2021/08/01 07:32:37;;;;;;;16.95;12.00;;;;;;;24.83;54.10;93365.06;5072109;28;20108;-48
2021/08/01 07:35:02;;;;;;;17.17;11.80;;;;;;;24.92;55.49;93369.66;5071718;28;20111;-48
2021/08/01 07:37:28;;;;;;;17.33;12.20;;;;;;;25.19;55.94;93363.66;5071244;28;20032;-50
2021/08/01 07:39:53;;;;;;;23.83;14.07;;;;;;;25.55;56.39;93373.53;5071668;28;20028;-48
2021/08/01 07:42:19;;;;;;;17.63;11.38;;;;;;;25.96;51.47;93372.19;5068787;28;20039;-51
2021/08/01 07:44:49;;;;;;;21.10;11.43;;;;;;;26.50;53.84;93374.13;5069092;28;20040;-48
2021/08/01 07:47:16;;;;;;;30.42;10.73;;;;;;;26.94;50.16;93369.94;5069465;28;20032;-49
2021/08/01 07:49:41;;;;;;;16.10;9.85;;;;;;;27.56;51.65;93365.50;5069086;28;20020;-48
2021/08/01 07:52:07;;;;;;;77.03;13.05;;;;;;;28.06;47.90;93379.72;5068221;28;20066;-48
2021/08/01 07:54:33;;;;;;;23.70;10.50;;;;;;;28.63;45.38;93371.31;5068686;28;20016;-49
2021/08/01 07:56:58;;;;;;;18.85;10.63;;;;;;;29.22;43.68;93379.94;5066956;28;20028;-48
2021/08/01 07:59:23;;;;;;;33.08;10.60;;;;;;;29.85;43.21;93367.84;5068818;28;20028;-49
2021/08/01 08:01:49;;;;;;;15.23;8.82;;;;;;;30.41;42.42;93368.28;5068683;28;20028;-47
2021/08/01 08:04:14;;;;;;;11.55;8.98;;;;;;;31.08;40.88;93367.34;5068792;28;20029;-47
2021/08/01 08:06:40;;;;;;;13.60;8.35;;;;;;;31.62;37.10;93372.47;5068599;28;20032;-51
2021/08/01 08:09:05;;;;;;;15.85;7.95;;;;;;;31.88;37.75;93356.41;5068845;28;20035;-47
2021/08/01 08:11:31;;;;;;;11.43;7.53;;;;;;;32.37;37.05;93368.47;5069102;28;20073;-48
2021/08/01 08:13:57;;;;;;;10.75;7.75;;;;;;;32.64;36.32;93364.47;5068828;28;20024;-47
2021/08/01 08:16:22;;;;;;;12.57;7.55;;;;;;;33.27;36.38;93366.50;5069027;28;20016;-53
2021/08/01 08:18:50;;;;;;;12.57;7.53;;;;;;;33.41;32.00;93346.59;5070066;28;20485;-53
2021/08/01 08:21:16;;;;;;;13.10;7.00;;;;;;;33.81;31.13;93379.81;5068529;28;20059;-54
2021/08/01 08:23:41;;;;;;;15.10;7.75;;;;;;;33.93;30.61;93374.13;5069423;28;20020;-54
2021/08/01 08:26:07;;;;;;;9.45;6.88;;;;;;;34.26;30.89;93373.59;5068758;28;20516;-52
2021/08/01 08:28:32;;;;;;;12.20;6.88;;;;;;;35.19;31.27;93367.44;5068439;28;20021;-53
2021/08/01 08:30:59;;;;;;;14.70;7.35;;;;;;;35.32;30.73;93363.84;5069355;28;20480;-53
2021/08/01 08:33:25;;;;;;;19.83;7.72;;;;;;;36.28;28.48;93365.13;5069106;28;20394;-52
2021/08/01 08:35:51;;;;;;;9.50;7.28;;;;;;;37.24;27.03;93364.63;5070654;28;20021;-53
2021/08/01 08:38:16;;;;;;;16.05;7.18;;;;;;;37.02;25.54;93370.53;5070870;28;20097;-55
2021/08/01 08:40:42;;;;;;;12.10;6.13;;;;;;;37.31;26.01;93368.19;5070499;28;20097;-52
2021/08/01 08:43:07;;;;;;;10.43;5.75;;;;;;;37.94;24.36;93374.88;5070546;28;20586;-54
2021/08/01 08:45:34;;;;;;;13.75;6.63;;;;;;;37.69;24.63;93373.63;5070693;28;20385;-53
2021/08/01 08:48:00;;;;;;;13.70;6.90;;;;;;;37.92;23.93;93374.19;5069510;28;20020;-54
2021/08/01 08:50:25;;;;;;;8.70;7.00;;;;;;;37.93;24.42;93375.59;5070788;28;20073;-51
2021/08/01 08:52:53;;;;;;;22.80;7.82;;;;;;;38.66;25.75;93367.56;5070323;28;20016;-53
2021/08/01 08:55:19;;;;;;;;;;;;;;;39.61;24.31;93359.72;5069393;28;20052;-54
2021/08/01 08:57:47;;;;;;;22.80;7.70;;;;;;;40.17;23.21;93361.63;5068876;28;19948;-55
2021/08/01 09:00:15;;;;;;;15.95;7.43;;;;;;;40.30;22.50;93357.03;5069019;28;20032;-55
2021/08/01 09:02:41;;;;;;;13.55;6.70;;;;;;;40.21;23.53;93357.94;5070318;28;20052;-54
2021/08/01 09:05:08;;;;;;;14.60;7.05;;;;;;;40.66;23.31;93355.59;5068737;28;20032;-54
2021/08/01 09:07:40;;;;;;;13.00;6.38;;;;;;;41.20;22.77;93354.41;5070082;28;20033;-55
2021/08/01 09:10:07;;;;;;;10.80;6.50;;;;;;;41.07;22.20;93346.75;5050471;28;20057;-55
2021/08/01 09:12:59;;;;;;;16.80;7.30;;;;;;;41.07;22.35;93338.06;5050455;28;20112;-55
2021/08/01 09:15:27;;;;;;;8.80;6.13;;;;;;;41.12;21.26;93334.31;5065565;28;20123;-55
2021/08/01 09:17:54;;;;;;;11.80;6.72;;;;;;;41.11;21.95;93332.88;5069980;28;20024;-54
2021/08/01 09:20:22;;;;;;;9.73;6.60;;;;;;;41.19;21.08;93335.59;5069599;28;20013;-54
2021/08/01 09:23:00;;;;;;;9.95;7.30;;;;;;;40.99;20.71;93327.38;5070042;28;20043;-55
2021/08/01 09:25:30;;;;;;;14.70;7.07;;;;;;;39.87;22.73;93327.47;5059333;28;20025;-55
2021/08/01 09:28:20;;;;;;;9.77;6.35;;;;;;;40.28;21.33;93321.63;5057268;28;20471;-54
2021/08/01 09:30:56;;;;;;;11.52;6.75;;;;;;;40.07;21.47;93316.25;5067747;28;20052;-55
2021/08/01 09:33:36;;;;;;;14.35;6.10;;;;;;;39.60;21.23;93297.59;5067520;28;20029;-53
2021/08/01 09:36:07;;;;;;;11.40;7.05;;;;;;;39.99;21.51;93315.69;5067894;28;20032;-54
2021/08/01 09:38:52;;;;;;;11.15;6.97;;;;;;;40.32;22.29;93307.81;5067608;28;20029;-54
2021/08/01 09:41:22;;;;;;;10.35;6.85;;;;;;;40.60;20.62;93309.41;5067950;28;20028;-54
2021/08/01 09:44:00;;;;;;;9.50;6.20;;;;;;;40.89;20.61;93310.25;5067219;28;20050;-55
2021/08/01 09:46:42;;;;;;;19.45;6.88;;;;;;;41.32;17.87;93302.00;5067685;28;20417;-55
2021/08/01 09:49:12;;;;;;;10.60;7.25;;;;;;;42.19;17.30;93314.28;5067097;28;20035;-55
2021/08/01 09:51:43;;;;;;;8.65;5.80;;;;;;;41.78;18.13;93313.91;5067000;28;20032;-55
2021/08/01 09:54:10;;;;;;;13.45;6.07;;;;;;;41.58;19.06;93311.50;5067682;28;20060;-54
2021/08/01 09:56:36;;;;;;;12.83;6.23;;;;;;;40.67;19.11;93281.75;5067919;28;20177;-55
2021/08/01 09:59:01;;;;;;;8.38;5.38;;;;;;;40.90;18.22;93302.97;5067303;28;20075;-53
2021/08/01 10:01:27;;;;;;;15.90;5.93;;;;;;;40.96;17.59;93296.34;5067116;28;20016;-56
2021/08/01 10:03:53;;;;;;;7.90;5.28;;;;;;;40.94;17.17;93294.19;5065152;28;20107;-55
2021/08/01 10:06:23;;;;;;;10.15;5.68;;;;;;;41.44;17.23;93310.38;5068933;28;20084;-55
2021/08/01 10:08:53;;;;;;;10.75;5.13;;;;;;;41.40;17.95;93296.00;5071165;28;20512;-55
2021/08/01 10:11:24;;;;;;;12.70;5.53;;;;;;;42.10;16.46;93296.38;5071102;28;20055;-56
2021/08/01 10:13:53;;;;;;;8.35;5.22;;;;;;;42.90;15.62;93301.34;5070729;28;20055;-55
2021/08/01 10:16:19;;;;;;;6.75;5.13;;;;;;;43.44;15.13;93293.09;5070785;28;20017;-56
2021/08/01 10:18:46;;;;;;;10.82;5.80;;;;;;;43.90;15.47;93291.56;5070708;28;20463;-55
2021/08/01 10:21:18;;;;;;;7.93;4.78;;;;;;;44.77;13.41;93285.50;5071431;28;20039;-56
2021/08/01 10:23:46;;;;;;;26.38;5.55;;;;;;;45.09;13.63;93281.34;5069944;28;20028;-56
2021/08/01 10:26:15;;;;;;;9.43;5.07;;;;;;;45.56;13.27;93268.53;5070513;28;20084;-56
2021/08/01 10:28:42;;;;;;;8.82;4.78;;;;;;;45.49;12.79;93264.44;5070908;28;20580;-55
2021/08/01 10:31:12;;;;;;;9.15;4.75;;;;;;;45.34;13.07;93264.31;5070506;28;20082;-56
2021/08/01 10:33:44;;;;;;;6.68;4.57;;;;;;;45.66;13.10;93256.44;5069163;28;20117;-56
2021/08/01 10:36:10;;;;;;;10.48;5.15;;;;;;;45.97;12.48;93261.69;5070637;28;20056;-56
2021/08/01 10:38:38;;;;;;;9.68;5.05;;;;;;;45.71;12.37;93254.78;5069264;28;20121;-56
2021/08/01 10:41:06;;;;;;;5.68;4.28;;;;;;;45.60;10.90;93254.50;5070467;28;20020;-56
2021/08/01 10:43:34;;;;;;;7.03;4.88;;;;;;;45.64;12.33;93256.53;5070323;28;20153;-56
2021/08/01 10:46:00;;;;;;;7.68;4.53;;;;;;;45.07;12.20;93261.03;5069455;28;20039;-56
2021/08/01 10:48:28;;;;;;;10.13;4.47;;;;;;;43.92;12.99;93259.47;5070609;28;20485;-56
2021/08/01 10:50:54;;;;;;;9.02;4.50;;;;;;;44.52;12.80;93242.03;5070639;28;20021;-56
2021/08/01 10:53:19;;;;;;;8.40;4.25;;;;;;;45.30;10.17;93260.84;5069602;28;20392;-56
2021/08/01 10:55:49;;;;;;;8.32;4.13;;;;;;;46.02;10.78;93268.78;5070264;28;20035;-56
2021/08/01 10:58:15;;;;;;;7.50;3.90;;;;;;;46.38;10.92;93258.44;5070021;28;20028;-56
2021/08/01 11:01:01;;;;;;;7.85;3.83;;;;;;;45.77;9.15;93254.50;5069853;28;20074;-56
2021/08/01 11:03:28;;;;;;;5.40;3.60;;;;;;;45.85;10.52;93257.78;5069921;28;20127;-56
2021/08/01 11:05:54;;;;;;;7.17;3.90;;;;;;;45.88;9.42;93251.84;5068068;28;20028;-56
2021/08/01 11:08:19;;;;;;;5.65;3.58;;;;;;;45.73;9.69;93248.84;5069906;28;20427;-56
2021/08/01 11:10:45;;;;;;;6.82;4.25;;;;;;;45.96;8.81;93242.78;5070118;28;20023;-56
2021/08/01 11:13:28;;;;;;;6.20;3.28;;;;;;;46.19;9.50;93238.09;5070008;28;20036;-55
2021/08/01 11:15:53;;;;;;;6.97;3.90;;;;;;;46.15;9.59;93244.09;5070672;28;20039;-56
2021/08/01 11:18:40;;;;;;;7.30;3.63;;;;;;;45.79;8.76;93243.47;5069566;28;20024;-56
2021/08/01 11:21:06;;;;;;;40.27;5.27;;;;;;;45.45;9.87;93233.22;5069210;28;20509;-56
2021/08/01 11:23:54;;;;;;;3.83;3.42;;;;;;;45.85;8.98;93236.66;5069148;28;20123;-56
2021/08/01 11:26:20;;;;;;;10.90;4.15;;;;;;;45.50;9.53;93245.44;5060650;28;20071;-56
2021/08/01 11:29:03;;;;;;;12.93;3.75;;;;;;;45.20;10.67;93232.84;5070053;28;20028;-56
2021/08/01 11:31:29;;;;;;;7.20;4.00;;;;;;;44.77;9.63;93227.94;5071685;28;20025;-56
2021/08/01 11:33:58;;;;;;;5.20;3.30;;;;;;;44.05;9.34;93234.31;5072105;28;20131;-56
2021/08/01 11:36:30;;;;;;;8.40;4.13;;;;;;;43.64;8.83;93231.38;5070458;28;20520;-56
2021/08/01 11:38:56;;;;;;;6.93;4.03;;;;;;;43.31;9.90;93234.66;5071887;28;20021;-56
2021/08/01 11:41:42;;;;;;;9.43;3.85;;;;;;;42.94;9.80;93243.84;5071908;28;20048;-56